<?xml version='1.0' encoding='UTF-8'?>
<gpx xmlns="http://www.topografix.com/GPX/1/1" creator="www.balnam.be" version="1.1" xmlns:xsi="http://www.w3.org/2001/XMLSchema-instance" xsi:schemaLocation="http://www.topografix.com/GPX/1/1 http://www.topografix.com/GPX/1/1/gpx.xsd">
<trk>
<name>bgdbz1</name>
<cmt>r</cmt>
<desc>Biez Chemin n°1 Rue du Fond / Rue de Cocrou</desc>
<link href="https://chemins.be/biez/chemin/1"/><trkseg>
<trkpt lat="50.738437" lon="4.725016"><time>2026-05-02T20:35:06Z</time></trkpt>
<trkpt lat="50.738313" lon="4.724335"><time>2026-05-02T20:45:06Z</time></trkpt>
<trkpt lat="50.738415" lon="4.723585"><time>2026-05-02T20:55:06Z</time></trkpt>
<trkpt lat="50.738299" lon="4.723088"><time>2026-05-02T21:05:06Z</time></trkpt>
<trkpt lat="50.738311" lon="4.722309"><time>2026-05-02T21:15:06Z</time></trkpt>
<trkpt lat="50.737838" lon="4.721031"><time>2026-05-02T21:25:06Z</time></trkpt>
<trkpt lat="50.737243" lon="4.718632"><time>2026-05-02T21:35:06Z</time></trkpt>
<trkpt lat="50.736422" lon="4.716543"><time>2026-05-02T21:45:06Z</time></trkpt>
</trkseg></trk>
<trk>
<name>bgdbz1</name>
<cmt>v</cmt>
<desc>Biez Chemin n°1 Rue du Fond / Rue de Cocrou</desc>
<link href="https://chemins.be/biez/chemin/1"/><trkseg>
<trkpt lat="50.736422" lon="4.716543"><time>2026-05-02T21:45:06Z</time></trkpt>
<trkpt lat="50.736333" lon="4.716260"><time>2026-05-02T21:55:06Z</time></trkpt>
<trkpt lat="50.736201" lon="4.715437"><time>2026-05-02T22:05:06Z</time></trkpt>
<trkpt lat="50.736006" lon="4.714387"><time>2026-05-02T22:15:06Z</time></trkpt>
<trkpt lat="50.735990" lon="4.713707"><time>2026-05-02T22:25:06Z</time></trkpt>
<trkpt lat="50.735821" lon="4.712969"><time>2026-05-02T22:35:06Z</time></trkpt>
<trkpt lat="50.735459" lon="4.710856"><time>2026-05-02T22:45:06Z</time></trkpt>
<trkpt lat="50.735408" lon="4.709935"><time>2026-05-02T22:55:06Z</time></trkpt>
</trkseg></trk>
<trk>
<name>bgdbz1</name>
<cmt>q</cmt>
<desc>Biez Chemin n°1 Rue du Fond / Rue de Cocrou</desc>
<link href="https://chemins.be/biez/chemin/1"/><trkseg>
<trkpt lat="50.735408" lon="4.709935"><time>2026-05-02T22:55:06Z</time></trkpt>
<trkpt lat="50.734744" lon="4.706289"><time>2026-05-02T23:05:06Z</time></trkpt>
<trkpt lat="50.735236" lon="4.704026"><time>2026-05-02T23:15:06Z</time></trkpt>
</trkseg>
</trk>
<trk>
<name>bgdbz10</name>
<cmt>v</cmt>
<desc>Biez Chemin n°10 </desc>
<link href="https://chemins.be/biez/chemin/10"/><trkseg>
<trkpt lat="50.728742" lon="4.743682"><time>2026-05-02T20:35:06Z</time></trkpt>
<trkpt lat="50.728628" lon="4.742717"><time>2026-05-02T20:45:06Z</time></trkpt>
<trkpt lat="50.728739" lon="4.741812"><time>2026-05-02T20:55:06Z</time></trkpt>
<trkpt lat="50.727097" lon="4.740793"><time>2026-05-02T21:05:06Z</time></trkpt>
<trkpt lat="50.723467" lon="4.739957"><time>2026-05-02T21:15:06Z</time></trkpt>
<trkpt lat="50.722499" lon="4.739029"><time>2026-05-02T21:25:06Z</time></trkpt>
</trkseg>
</trk>
<trk>
<name>bgdbz11</name>
<cmt>r</cmt>
<desc>Biez Chemin n°11 Rue de Bettinval / Rue Bruyères Marion</desc>
<link href="https://chemins.be/biez/chemin/11"/><trkseg>
<trkpt lat="50.736386" lon="4.716600"><time>2026-05-02T20:35:06Z</time></trkpt>
<trkpt lat="50.736774" lon="4.716178"><time>2026-05-02T20:45:06Z</time></trkpt>
</trkseg></trk>
<trk>
<name>bgdbz11</name>
<cmt>v</cmt>
<desc>Biez Chemin n°11 Rue de Bettinval / Rue Bruyères Marion</desc>
<link href="https://chemins.be/biez/chemin/11"/><trkseg>
<trkpt lat="50.736774" lon="4.716178"><time>2026-05-02T20:45:06Z</time></trkpt>
<trkpt lat="50.736919" lon="4.716224"><time>2026-05-02T20:55:06Z</time></trkpt>
<trkpt lat="50.736961" lon="4.716350"><time>2026-05-02T21:05:06Z</time></trkpt>
<trkpt lat="50.737002" lon="4.716369"><time>2026-05-02T21:15:06Z</time></trkpt>
<trkpt lat="50.737017" lon="4.716247"><time>2026-05-02T21:25:06Z</time></trkpt>
<trkpt lat="50.737084" lon="4.716223"><time>2026-05-02T21:35:06Z</time></trkpt>
<trkpt lat="50.738108" lon="4.716302"><time>2026-05-02T21:45:06Z</time></trkpt>
<trkpt lat="50.738499" lon="4.716445"><time>2026-05-02T21:55:06Z</time></trkpt>
<trkpt lat="50.738811" lon="4.717326"><time>2026-05-02T22:05:06Z</time></trkpt>
<trkpt lat="50.739367" lon="4.717954"><time>2026-05-02T22:15:06Z</time></trkpt>
<trkpt lat="50.741940" lon="4.718322"><time>2026-05-02T22:25:06Z</time></trkpt>
<trkpt lat="50.742830" lon="4.719581"><time>2026-05-02T22:35:06Z</time></trkpt>
<trkpt lat="50.743528" lon="4.719745"><time>2026-05-02T22:45:06Z</time></trkpt>
<trkpt lat="50.743773" lon="4.720466"><time>2026-05-02T22:55:06Z</time></trkpt>
</trkseg>
</trk>
<trk>
<name>bgdbz12</name>
<cmt>b</cmt>
<desc>Biez Chemin n°12 </desc>
<link href="https://chemins.be/biez/chemin/12"/><trkseg>
<trkpt lat="50.722934" lon="4.712977"><time>2026-05-02T20:35:06Z</time></trkpt>
<trkpt lat="50.722774" lon="4.713758"><time>2026-05-02T20:45:06Z</time></trkpt>
</trkseg></trk>
<trk>
<name>bgdbz12</name>
<cmt>q</cmt>
<desc>Biez Chemin n°12 </desc>
<link href="https://chemins.be/biez/chemin/12"/><trkseg>
<trkpt lat="50.722774" lon="4.713758"><time>2026-05-02T20:45:06Z</time></trkpt>
<trkpt lat="50.722747" lon="4.713928"><time>2026-05-02T20:55:06Z</time></trkpt>
</trkseg>
</trk>
<trk>
<name>bgdbz13</name>
<cmt>v</cmt>
<desc>Biez Chemin n°13 </desc>
<link href="https://chemins.be/biez/chemin/13"/><trkseg>
<trkpt lat="50.722252" lon="4.723933"><time>2026-05-02T20:35:06Z</time></trkpt>
<trkpt lat="50.721709" lon="4.727339"><time>2026-05-02T20:45:06Z</time></trkpt>
</trkseg></trk>
<trk>
<name>bgdbz13</name>
<cmt>b</cmt>
<desc>Biez Chemin n°13 </desc>
<link href="https://chemins.be/biez/chemin/13"/><trkseg>
<trkpt lat="50.721709" lon="4.727339"><time>2026-05-02T20:45:06Z</time></trkpt>
<trkpt lat="50.721050" lon="4.730974"><time>2026-05-02T20:55:06Z</time></trkpt>
<trkpt lat="50.720690" lon="4.734242"><time>2026-05-02T21:05:06Z</time></trkpt>
</trkseg></trk>
<trk>
<name>bgdbz13</name>
<cmt>v</cmt>
<desc>Biez Chemin n°13 </desc>
<link href="https://chemins.be/biez/chemin/13"/><trkseg>
<trkpt lat="50.720690" lon="4.734242"><time>2026-05-02T21:05:06Z</time></trkpt>
<trkpt lat="50.722234" lon="4.737554"><time>2026-05-02T21:15:06Z</time></trkpt>
<trkpt lat="50.722385" lon="4.738961"><time>2026-05-02T21:25:06Z</time></trkpt>
<trkpt lat="50.722709" lon="4.741070"><time>2026-05-02T21:35:06Z</time></trkpt>
<trkpt lat="50.722675" lon="4.743222"><time>2026-05-02T21:45:06Z</time></trkpt>
</trkseg>
</trk>
<trk>
<name>bgdbz14</name>
<cmt>v</cmt>
<desc>Biez Chemin n°14 Rue du Grand Sart</desc>
<link href="https://chemins.be/biez/chemin/14"/><trkseg>
<trkpt lat="50.722271" lon="4.737512"><time>2026-05-02T20:35:06Z</time></trkpt>
<trkpt lat="50.722473" lon="4.736111"><time>2026-05-02T20:45:06Z</time></trkpt>
<trkpt lat="50.723306" lon="4.734263"><time>2026-05-02T20:55:06Z</time></trkpt>
<trkpt lat="50.724030" lon="4.732753"><time>2026-05-02T21:05:06Z</time></trkpt>
<trkpt lat="50.724448" lon="4.731255"><time>2026-05-02T21:15:06Z</time></trkpt>
<trkpt lat="50.725648" lon="4.729720"><time>2026-05-02T21:25:06Z</time></trkpt>
<trkpt lat="50.726082" lon="4.729016"><time>2026-05-02T21:35:06Z</time></trkpt>
<trkpt lat="50.726861" lon="4.726982"><time>2026-05-02T21:45:06Z</time></trkpt>
<trkpt lat="50.728628" lon="4.724550"><time>2026-05-02T21:55:06Z</time></trkpt>
<trkpt lat="50.728660" lon="4.724506"><time>2026-05-02T22:05:06Z</time></trkpt>
</trkseg></trk>
<trk>
<name>bgdbz14</name>
<cmt>d</cmt>
<desc>Biez Chemin n°14 Rue du Grand Sart</desc>
<link href="https://chemins.be/biez/chemin/14"/><trkseg>
<trkpt lat="50.728660" lon="4.724506"><time>2026-05-02T22:05:06Z</time></trkpt>
<trkpt lat="50.728816" lon="4.723877"><time>2026-05-02T22:15:06Z</time></trkpt>
<trkpt lat="50.728947" lon="4.722178"><time>2026-05-02T22:25:06Z</time></trkpt>
</trkseg>
</trk>
<trk>
<name>bgdbz15</name>
<cmt>v</cmt>
<desc>Biez Chemin n°15 </desc>
<link href="https://chemins.be/biez/chemin/15"/><trkseg>
<trkpt lat="50.738738" lon="4.724223"><time>2026-05-02T20:35:06Z</time></trkpt>
<trkpt lat="50.739219" lon="4.724544"><time>2026-05-02T20:45:06Z</time></trkpt>
<trkpt lat="50.739626" lon="4.724699"><time>2026-05-02T20:55:06Z</time></trkpt>
<trkpt lat="50.740476" lon="4.724481"><time>2026-05-02T21:05:06Z</time></trkpt>
</trkseg></trk>
<trk>
<name>bgdbz15</name>
<cmt>d</cmt>
<desc>Biez Chemin n°15 </desc>
<link href="https://chemins.be/biez/chemin/15"/><trkseg>
<trkpt lat="50.740476" lon="4.724481"><time>2026-05-02T21:05:06Z</time></trkpt>
<trkpt lat="50.740905" lon="4.724744"><time>2026-05-02T21:15:06Z</time></trkpt>
</trkseg></trk>
<trk>
<name>bgdbz15</name>
<cmt>q</cmt>
<desc>Biez Chemin n°15 </desc>
<link href="https://chemins.be/biez/chemin/15"/><trkseg>
<trkpt lat="50.740905" lon="4.724744"><time>2026-05-02T21:15:06Z</time></trkpt>
<trkpt lat="50.741648" lon="4.725339"><time>2026-05-02T21:25:06Z</time></trkpt>
<trkpt lat="50.742744" lon="4.725017"><time>2026-05-02T21:35:06Z</time></trkpt>
<trkpt lat="50.743545" lon="4.725153"><time>2026-05-02T21:45:06Z</time></trkpt>
</trkseg>
</trk>
<trk>
<name>bgdbz16</name>
<cmt>v</cmt>
<desc>Biez Chemin n°16 </desc>
<link href="https://chemins.be/biez/chemin/16"/><trkseg>
<trkpt lat="50.719690" lon="4.728086"><time>2026-05-02T20:35:06Z</time></trkpt>
<trkpt lat="50.719542" lon="4.730212"><time>2026-05-02T20:45:06Z</time></trkpt>
<trkpt lat="50.719923" lon="4.732226"><time>2026-05-02T20:55:06Z</time></trkpt>
<trkpt lat="50.720332" lon="4.733560"><time>2026-05-02T21:05:06Z</time></trkpt>
<trkpt lat="50.720600" lon="4.734072"><time>2026-05-02T21:15:06Z</time></trkpt>
</trkseg>
</trk>
<trk>
<name>bgdbz17</name>
<cmt>r</cmt>
<desc>Biez Chemin n°17 Rue de Renival / Sentier des Communes</desc>
<link href="https://chemins.be/biez/chemin/17"/><trkseg>
<trkpt lat="50.733960" lon="4.719231"><time>2026-05-02T20:35:06Z</time></trkpt>
<trkpt lat="50.734165" lon="4.719785"><time>2026-05-02T20:45:06Z</time></trkpt>
<trkpt lat="50.734045" lon="4.720719"><time>2026-05-02T20:55:06Z</time></trkpt>
<trkpt lat="50.733484" lon="4.722117"><time>2026-05-02T21:05:06Z</time></trkpt>
</trkseg></trk>
<trk>
<name>bgdbz17</name>
<cmt>v</cmt>
<desc>Biez Chemin n°17 Rue de Renival / Sentier des Communes</desc>
<link href="https://chemins.be/biez/chemin/17"/><trkseg>
<trkpt lat="50.733484" lon="4.722117"><time>2026-05-02T21:05:06Z</time></trkpt>
<trkpt lat="50.733077" lon="4.722794"><time>2026-05-02T21:15:06Z</time></trkpt>
<trkpt lat="50.732789" lon="4.723033"><time>2026-05-02T21:25:06Z</time></trkpt>
<trkpt lat="50.732761" lon="4.723316"><time>2026-05-02T21:35:06Z</time></trkpt>
<trkpt lat="50.732910" lon="4.724153"><time>2026-05-02T21:45:06Z</time></trkpt>
</trkseg>
</trk>
<trk>
<name>bgdbz19</name>
<cmt>v</cmt>
<desc>Biez Chemin n°19 </desc>
<link href="https://chemins.be/biez/chemin/19"/><trkseg>
<trkpt lat="50.725936" lon="4.702501"><time>2026-05-02T20:35:06Z</time></trkpt>
<trkpt lat="50.725821" lon="4.701934"><time>2026-05-02T20:45:06Z</time></trkpt>
<trkpt lat="50.725463" lon="4.701379"><time>2026-05-02T20:55:06Z</time></trkpt>
</trkseg>
</trk>
<trk>
<name>bgdbz2</name>
<cmt>v</cmt>
<desc>Biez Chemin n°2 </desc>
<link href="https://chemins.be/biez/chemin/2"/><trkseg>
<trkpt lat="50.724068" lon="4.747486"><time>2026-05-02T20:35:06Z</time></trkpt>
<trkpt lat="50.723702" lon="4.746182"><time>2026-05-02T20:45:06Z</time></trkpt>
<trkpt lat="50.722862" lon="4.743635"><time>2026-05-02T20:55:06Z</time></trkpt>
<trkpt lat="50.722710" lon="4.743393"><time>2026-05-02T21:05:06Z</time></trkpt>
<trkpt lat="50.721083" lon="4.740477"><time>2026-05-02T21:15:06Z</time></trkpt>
<trkpt lat="50.720201" lon="4.738190"><time>2026-05-02T21:25:06Z</time></trkpt>
<trkpt lat="50.719708" lon="4.737492"><time>2026-05-02T21:35:06Z</time></trkpt>
<trkpt lat="50.718604" lon="4.737101"><time>2026-05-02T21:45:06Z</time></trkpt>
</trkseg>
</trk>
<trk>
<name>bgdbz20</name>
<cmt>v</cmt>
<desc>Biez Chemin n°20 Sentier du Moulin</desc>
<link href="https://chemins.be/biez/chemin/20"/><trkseg>
<trkpt lat="50.730932" lon="4.728847"><time>2026-05-02T20:35:06Z</time></trkpt>
<trkpt lat="50.731603" lon="4.729766"><time>2026-05-02T20:45:06Z</time></trkpt>
<trkpt lat="50.731850" lon="4.730611"><time>2026-05-02T20:55:06Z</time></trkpt>
<trkpt lat="50.731956" lon="4.730718"><time>2026-05-02T21:05:06Z</time></trkpt>
</trkseg>
</trk>
<trk>
<name>bgdbz22</name>
<cmt>r</cmt>
<desc>Biez Chemin n°22 Rue du Grand Sart / Sentier Moureau</desc>
<link href="https://chemins.be/biez/chemin/22"/><trkseg>
<trkpt lat="50.730242" lon="4.738130"><time>2026-05-02T20:35:06Z</time></trkpt>
<trkpt lat="50.729909" lon="4.738208"><time>2026-05-02T20:45:06Z</time></trkpt>
<trkpt lat="50.729499" lon="4.737898"><time>2026-05-02T20:55:06Z</time></trkpt>
<trkpt lat="50.729157" lon="4.737538"><time>2026-05-02T21:05:06Z</time></trkpt>
</trkseg></trk>
<trk>
<name>bgdbz22</name>
<cmt>v</cmt>
<desc>Biez Chemin n°22 Rue du Grand Sart / Sentier Moureau</desc>
<link href="https://chemins.be/biez/chemin/22"/><trkseg>
<trkpt lat="50.729157" lon="4.737538"><time>2026-05-02T21:05:06Z</time></trkpt>
<trkpt lat="50.728443" lon="4.736811"><time>2026-05-02T21:15:06Z</time></trkpt>
<trkpt lat="50.728038" lon="4.736498"><time>2026-05-02T21:25:06Z</time></trkpt>
</trkseg>
</trk>
<trk>
<name>bgdbz24</name>
<cmt>v</cmt>
<desc>Biez Chemin n°24 Rue des Lowas</desc>
<link href="https://chemins.be/biez/chemin/24"/><trkseg>
<trkpt lat="50.742044" lon="4.718342"><time>2026-05-02T20:35:06Z</time></trkpt>
<trkpt lat="50.741601" lon="4.716171"><time>2026-05-02T20:45:06Z</time></trkpt>
<trkpt lat="50.741285" lon="4.713675"><time>2026-05-02T20:55:06Z</time></trkpt>
</trkseg>
</trk>
<trk>
<name>bgdbz25</name>
<cmt>r</cmt>
<desc>Biez Sentier n°25 Rue du Beau Frêne</desc>
<link href="https://chemins.be/biez/sentier/25"/><trkseg>
<trkpt lat="50.730084" lon="4.742885"><time>2026-05-02T20:35:06Z</time></trkpt>
<trkpt lat="50.728850" lon="4.743640"><time>2026-05-02T20:45:06Z</time></trkpt>
</trkseg></trk>
<trk>
<name>bgdbz25</name>
<cmt>v</cmt>
<desc>Biez Sentier n°25 Rue du Beau Frêne</desc>
<link href="https://chemins.be/biez/sentier/25"/><trkseg>
<trkpt lat="50.728850" lon="4.743640"><time>2026-05-02T20:45:06Z</time></trkpt>
<trkpt lat="50.728285" lon="4.743918"><time>2026-05-02T20:55:06Z</time></trkpt>
<trkpt lat="50.726921" lon="4.744519"><time>2026-05-02T21:05:06Z</time></trkpt>
</trkseg>
</trk>
<trk>
<name>bgdbz26</name>
<cmt>d</cmt>
<desc>Biez Sentier n°26 </desc>
<link href="https://chemins.be/biez/sentier/26"/><trkseg>
<trkpt lat="50.735320" lon="4.716069"><time>2026-05-02T20:35:06Z</time></trkpt>
<trkpt lat="50.735491" lon="4.715632"><time>2026-05-02T20:45:06Z</time></trkpt>
<trkpt lat="50.735376" lon="4.714297"><time>2026-05-02T20:55:06Z</time></trkpt>
</trkseg></trk>
<trk>
<name>bgdbz26</name>
<cmt>q</cmt>
<desc>Biez Sentier n°26 </desc>
<link href="https://chemins.be/biez/sentier/26"/><trkseg>
<trkpt lat="50.735376" lon="4.714297"><time>2026-05-02T20:55:06Z</time></trkpt>
<trkpt lat="50.735959" lon="4.714098"><time>2026-05-02T21:05:06Z</time></trkpt>
</trkseg>
</trk>
<trk>
<name>bgdbz27</name>
<cmt>q</cmt>
<desc>Biez Sentier n°27 </desc>
<link href="https://chemins.be/biez/sentier/27"/><trkseg>
<trkpt lat="50.727618" lon="4.705564"><time>2026-05-02T20:35:06Z</time></trkpt>
<trkpt lat="50.728048" lon="4.705589"><time>2026-05-02T20:45:06Z</time></trkpt>
<trkpt lat="50.728621" lon="4.705389"><time>2026-05-02T20:55:06Z</time></trkpt>
<trkpt lat="50.729370" lon="4.705081"><time>2026-05-02T21:05:06Z</time></trkpt>
<trkpt lat="50.731503" lon="4.704652"><time>2026-05-02T21:15:06Z</time></trkpt>
</trkseg>
</trk>
<trk>
<name>bgdbz28</name>
<cmt>v</cmt>
<desc>Biez Sentier n°28 </desc>
<link href="https://chemins.be/biez/sentier/28"/><trkseg>
<trkpt lat="50.734438" lon="4.717222"><time>2026-05-02T20:35:06Z</time></trkpt>
<trkpt lat="50.734228" lon="4.717032"><time>2026-05-02T20:45:06Z</time></trkpt>
</trkseg></trk>
<trk>
<name>bgdbz28</name>
<cmt>b</cmt>
<desc>Biez Sentier n°28 </desc>
<link href="https://chemins.be/biez/sentier/28"/><trkseg>
<trkpt lat="50.734228" lon="4.717032"><time>2026-05-02T20:45:06Z</time></trkpt>
<trkpt lat="50.734131" lon="4.716757"><time>2026-05-02T20:55:06Z</time></trkpt>
</trkseg></trk>
<trk>
<name>bgdbz28</name>
<cmt>d</cmt>
<desc>Biez Sentier n°28 </desc>
<link href="https://chemins.be/biez/sentier/28"/><trkseg>
<trkpt lat="50.734131" lon="4.716757"><time>2026-05-02T20:55:06Z</time></trkpt>
<trkpt lat="50.733823" lon="4.715977"><time>2026-05-02T21:05:06Z</time></trkpt>
<trkpt lat="50.733737" lon="4.715852"><time>2026-05-02T21:15:06Z</time></trkpt>
<trkpt lat="50.733180" lon="4.715158"><time>2026-05-02T21:25:06Z</time></trkpt>
<trkpt lat="50.732365" lon="4.713767"><time>2026-05-02T21:35:06Z</time></trkpt>
</trkseg>
</trk>
<trk>
<name>bgdbz29</name>
<cmt>v</cmt>
<desc>Biez Sentier n°29 Chemin de la Bar</desc>
<link href="https://chemins.be/biez/sentier/29"/><trkseg>
<trkpt lat="50.729303" lon="4.700726"><time>2026-05-02T20:35:06Z</time></trkpt>
<trkpt lat="50.729084" lon="4.701744"><time>2026-05-02T20:45:06Z</time></trkpt>
<trkpt lat="50.728405" lon="4.703482"><time>2026-05-02T20:55:06Z</time></trkpt>
<trkpt lat="50.728062" lon="4.703904"><time>2026-05-02T21:05:06Z</time></trkpt>
<trkpt lat="50.727380" lon="4.703758"><time>2026-05-02T21:15:06Z</time></trkpt>
</trkseg>
</trk>
<trk>
<name>bgdbz30</name>
<cmt>d</cmt>
<desc>Biez Sentier n°30 </desc>
<link href="https://chemins.be/biez/sentier/30"/><trkseg>
<trkpt lat="50.728952" lon="4.722045"><time>2026-05-02T20:35:06Z</time></trkpt>
<trkpt lat="50.728215" lon="4.720058"><time>2026-05-02T20:45:06Z</time></trkpt>
<trkpt lat="50.727540" lon="4.718832"><time>2026-05-02T20:55:06Z</time></trkpt>
</trkseg></trk>
<trk>
<name>bgdbz30</name>
<cmt>s</cmt>
<desc>Biez Sentier n°30 </desc>
<link href="https://chemins.be/biez/sentier/30"/><trkseg>
<trkpt lat="50.727540" lon="4.718832"><time>2026-05-02T20:55:06Z</time></trkpt>
<trkpt lat="50.727179" lon="4.718183"><time>2026-05-02T21:05:06Z</time></trkpt>
<trkpt lat="50.726412" lon="4.716498"><time>2026-05-02T21:15:06Z</time></trkpt>
<trkpt lat="50.726941" lon="4.714760"><time>2026-05-02T21:25:06Z</time></trkpt>
<trkpt lat="50.726514" lon="4.712089"><time>2026-05-02T21:35:06Z</time></trkpt>
<trkpt lat="50.726612" lon="4.710526"><time>2026-05-02T21:45:06Z</time></trkpt>
<trkpt lat="50.726731" lon="4.708645"><time>2026-05-02T21:55:06Z</time></trkpt>
<trkpt lat="50.727587" lon="4.706596"><time>2026-05-02T22:05:06Z</time></trkpt>
</trkseg>
</trk>
<trk>
<name>bgdbz31</name>
<cmt>v</cmt>
<desc>Biez Sentier n°31 Sentier de la Bar / Rue de Basse-Biez</desc>
<link href="https://chemins.be/biez/sentier/31"/><trkseg>
<trkpt lat="50.732475" lon="4.701145"><time>2026-05-02T20:35:06Z</time></trkpt>
<trkpt lat="50.731976" lon="4.702700"><time>2026-05-02T20:45:06Z</time></trkpt>
</trkseg></trk>
<trk>
<name>bgdbz31</name>
<cmt>r</cmt>
<desc>Biez Sentier n°31 Sentier de la Bar / Rue de Basse-Biez</desc>
<link href="https://chemins.be/biez/sentier/31"/><trkseg>
<trkpt lat="50.731976" lon="4.702700"><time>2026-05-02T20:45:06Z</time></trkpt>
<trkpt lat="50.731223" lon="4.702227"><time>2026-05-02T20:55:06Z</time></trkpt>
</trkseg></trk>
<trk>
<name>bgdbz31</name>
<cmt>v</cmt>
<desc>Biez Sentier n°31 Sentier de la Bar / Rue de Basse-Biez</desc>
<link href="https://chemins.be/biez/sentier/31"/><trkseg>
<trkpt lat="50.731223" lon="4.702227"><time>2026-05-02T20:55:06Z</time></trkpt>
<trkpt lat="50.730834" lon="4.703060"><time>2026-05-02T21:05:06Z</time></trkpt>
<trkpt lat="50.730537" lon="4.703100"><time>2026-05-02T21:15:06Z</time></trkpt>
</trkseg></trk>
<trk>
<name>bgdbz31</name>
<cmt>d</cmt>
<desc>Biez Sentier n°31 Sentier de la Bar / Rue de Basse-Biez</desc>
<link href="https://chemins.be/biez/sentier/31"/><trkseg>
<trkpt lat="50.730537" lon="4.703100"><time>2026-05-02T21:15:06Z</time></trkpt>
<trkpt lat="50.728729" lon="4.703612"><time>2026-05-02T21:25:06Z</time></trkpt>
<trkpt lat="50.728459" lon="4.703539"><time>2026-05-02T21:35:06Z</time></trkpt>
</trkseg>
</trk>
<trk>
<name>bgdbz32</name>
<cmt>v</cmt>
<desc>Biez Sentier n°32 Chemin de la Planterie / Pente du Ry</desc>
<link href="https://chemins.be/biez/sentier/32"/><trkseg>
<trkpt lat="50.722847" lon="4.698852"><time>2026-05-02T20:35:06Z</time></trkpt>
<trkpt lat="50.722587" lon="4.699832"><time>2026-05-02T20:45:06Z</time></trkpt>
<trkpt lat="50.721957" lon="4.701593"><time>2026-05-02T20:55:06Z</time></trkpt>
<trkpt lat="50.721343" lon="4.704611"><time>2026-05-02T21:05:06Z</time></trkpt>
<trkpt lat="50.721507" lon="4.705423"><time>2026-05-02T21:15:06Z</time></trkpt>
<trkpt lat="50.721642" lon="4.706178"><time>2026-05-02T21:25:06Z</time></trkpt>
<trkpt lat="50.722037" lon="4.706683"><time>2026-05-02T21:35:06Z</time></trkpt>
</trkseg></trk>
<trk>
<name>bgdbz32</name>
<cmt>r</cmt>
<desc>Biez Sentier n°32 Chemin de la Planterie / Pente du Ry</desc>
<link href="https://chemins.be/biez/sentier/32"/><trkseg>
<trkpt lat="50.722037" lon="4.706683"><time>2026-05-02T21:35:06Z</time></trkpt>
<trkpt lat="50.722027" lon="4.706683"><time>2026-05-02T21:45:06Z</time></trkpt>
<trkpt lat="50.722027" lon="4.706693"><time>2026-05-02T21:55:06Z</time></trkpt>
<trkpt lat="50.722406" lon="4.708022"><time>2026-05-02T22:05:06Z</time></trkpt>
<trkpt lat="50.722502" lon="4.708741"><time>2026-05-02T22:15:06Z</time></trkpt>
<trkpt lat="50.722557" lon="4.708856"><time>2026-05-02T22:25:06Z</time></trkpt>
<trkpt lat="50.722610" lon="4.711459"><time>2026-05-02T22:35:06Z</time></trkpt>
<trkpt lat="50.722703" lon="4.711916"><time>2026-05-02T22:45:06Z</time></trkpt>
</trkseg></trk>
<trk>
<name>bgdbz32</name>
<cmt>q</cmt>
<desc>Biez Sentier n°32 Chemin de la Planterie / Pente du Ry</desc>
<link href="https://chemins.be/biez/sentier/32"/><trkseg>
<trkpt lat="50.722703" lon="4.711916"><time>2026-05-02T22:45:06Z</time></trkpt>
<trkpt lat="50.722751" lon="4.713521"><time>2026-05-02T22:55:06Z</time></trkpt>
</trkseg>
</trk>
<trk>
<name>bgdbz33</name>
<cmt>v</cmt>
<desc>Biez Sentier n°33 Avenue des Sapins</desc>
<link href="https://chemins.be/biez/sentier/33"/><trkseg>
<trkpt lat="50.726652" lon="4.702621"><time>2026-05-02T20:35:06Z</time></trkpt>
<trkpt lat="50.726363" lon="4.703424"><time>2026-05-02T20:45:06Z</time></trkpt>
<trkpt lat="50.725747" lon="4.704108"><time>2026-05-02T20:55:06Z</time></trkpt>
<trkpt lat="50.725266" lon="4.704886"><time>2026-05-02T21:05:06Z</time></trkpt>
</trkseg></trk>
<trk>
<name>bgdbz33</name>
<cmt>q</cmt>
<desc>Biez Sentier n°33 Avenue des Sapins</desc>
<link href="https://chemins.be/biez/sentier/33"/><trkseg>
<trkpt lat="50.725266" lon="4.704886"><time>2026-05-02T21:05:06Z</time></trkpt>
<trkpt lat="50.724318" lon="4.705893"><time>2026-05-02T21:15:06Z</time></trkpt>
<trkpt lat="50.722744" lon="4.708103"><time>2026-05-02T21:25:06Z</time></trkpt>
<trkpt lat="50.722563" lon="4.708504"><time>2026-05-02T21:35:06Z</time></trkpt>
</trkseg></trk>
<trk>
<name>bgdbz33</name>
<cmt>s</cmt>
<desc>Biez Sentier n°33 Avenue des Sapins</desc>
<link href="https://chemins.be/biez/sentier/33"/><trkseg>
<trkpt lat="50.722563" lon="4.708504"><time>2026-05-02T21:35:06Z</time></trkpt>
<trkpt lat="50.720229" lon="4.712206"><time>2026-05-02T21:45:06Z</time></trkpt>
</trkseg>
</trk>
<trk>
<name>bgdbz34</name>
<cmt>d</cmt>
<desc>Biez Sentier n°34 </desc>
<link href="https://chemins.be/biez/sentier/34"/><trkseg>
<trkpt lat="50.733739" lon="4.715866"><time>2026-05-02T20:35:06Z</time></trkpt>
<trkpt lat="50.733158" lon="4.716295"><time>2026-05-02T20:45:06Z</time></trkpt>
<trkpt lat="50.729113" lon="4.719112"><time>2026-05-02T20:55:06Z</time></trkpt>
<trkpt lat="50.728993" lon="4.719256"><time>2026-05-02T21:05:06Z</time></trkpt>
<trkpt lat="50.728845" lon="4.718859"><time>2026-05-02T21:15:06Z</time></trkpt>
<trkpt lat="50.727897" lon="4.719460"><time>2026-05-02T21:25:06Z</time></trkpt>
</trkseg>
</trk>
<trk>
<name>bgdbz35</name>
<cmt>d</cmt>
<desc>Biez Sentier n°35 </desc>
<link href="https://chemins.be/biez/sentier/35"/><trkseg>
<trkpt lat="50.722880" lon="4.743748"><time>2026-05-02T20:35:06Z</time></trkpt>
<trkpt lat="50.721742" lon="4.748271"><time>2026-05-02T20:45:06Z</time></trkpt>
</trkseg>
</trk>
<trk>
<name>bgdbz36</name>
<cmt>q</cmt>
<desc>Biez Sentier n°36 Chemin du Vicinal</desc>
<link href="https://chemins.be/biez/sentier/36"/><trkseg>
<trkpt lat="50.728242" lon="4.700804"><time>2026-05-02T20:35:06Z</time></trkpt>
<trkpt lat="50.729827" lon="4.702155"><time>2026-05-02T20:45:06Z</time></trkpt>
<trkpt lat="50.730836" lon="4.703098"><time>2026-05-02T20:55:06Z</time></trkpt>
<trkpt lat="50.731198" lon="4.704328"><time>2026-05-02T21:05:06Z</time></trkpt>
<trkpt lat="50.731456" lon="4.704657"><time>2026-05-02T21:15:06Z</time></trkpt>
</trkseg>
</trk>
<trk>
<name>bgdbz37</name>
<cmt>v</cmt>
<desc>Biez Sentier n°37 Rue du Petit Sart / Rue de Renival</desc>
<link href="https://chemins.be/biez/sentier/37"/><trkseg>
<trkpt lat="50.728667" lon="4.724546"><time>2026-05-02T20:35:06Z</time></trkpt>
<trkpt lat="50.730470" lon="4.724856"><time>2026-05-02T20:45:06Z</time></trkpt>
<trkpt lat="50.730879" lon="4.724307"><time>2026-05-02T20:55:06Z</time></trkpt>
<trkpt lat="50.731311" lon="4.724225"><time>2026-05-02T21:05:06Z</time></trkpt>
<trkpt lat="50.731778" lon="4.724144"><time>2026-05-02T21:15:06Z</time></trkpt>
<trkpt lat="50.732857" lon="4.724209"><time>2026-05-02T21:25:06Z</time></trkpt>
<trkpt lat="50.733678" lon="4.724177"><time>2026-05-02T21:35:06Z</time></trkpt>
<trkpt lat="50.734393" lon="4.723602"><time>2026-05-02T21:45:06Z</time></trkpt>
</trkseg></trk>
<trk>
<name>bgdbz37</name>
<cmt>d</cmt>
<desc>Biez Sentier n°37 Rue du Petit Sart / Rue de Renival</desc>
<link href="https://chemins.be/biez/sentier/37"/><trkseg>
<trkpt lat="50.734393" lon="4.723602"><time>2026-05-02T21:45:06Z</time></trkpt>
<trkpt lat="50.737062" lon="4.721889"><time>2026-05-02T21:55:06Z</time></trkpt>
</trkseg>
</trk>
<trk>
<name>bgdbz38</name>
<cmt>q</cmt>
<desc>Biez Sentier n°38 </desc>
<link href="https://chemins.be/biez/sentier/38"/><trkseg>
<trkpt lat="50.735385" lon="4.709959"><time>2026-05-02T20:35:06Z</time></trkpt>
<trkpt lat="50.735529" lon="4.708951"><time>2026-05-02T20:45:06Z</time></trkpt>
<trkpt lat="50.735698" lon="4.707771"><time>2026-05-02T20:55:06Z</time></trkpt>
<trkpt lat="50.736302" lon="4.706075"><time>2026-05-02T21:05:06Z</time></trkpt>
<trkpt lat="50.736523" lon="4.705271"><time>2026-05-02T21:15:06Z</time></trkpt>
</trkseg>
</trk>
<trk>
<name>bgdbz39</name>
<cmt>v</cmt>
<desc>Biez Sentier n°39 </desc>
<link href="https://chemins.be/biez/sentier/39"/><trkseg>
<trkpt lat="50.733690" lon="4.704374"><time>2026-05-02T20:35:06Z</time></trkpt>
<trkpt lat="50.733284" lon="4.705524"><time>2026-05-02T20:45:06Z</time></trkpt>
</trkseg></trk>
<trk>
<name>bgdbz39</name>
<cmt>d</cmt>
<desc>Biez Sentier n°39 </desc>
<link href="https://chemins.be/biez/sentier/39"/><trkseg>
<trkpt lat="50.733284" lon="4.705524"><time>2026-05-02T20:45:06Z</time></trkpt>
<trkpt lat="50.732653" lon="4.707309"><time>2026-05-02T20:55:06Z</time></trkpt>
<trkpt lat="50.733223" lon="4.709984"><time>2026-05-02T21:05:06Z</time></trkpt>
<trkpt lat="50.732757" lon="4.714957"><time>2026-05-02T21:15:06Z</time></trkpt>
</trkseg></trk>
<trk>
<name>bgdbz39</name>
<cmt>s</cmt>
<desc>Biez Sentier n°39 </desc>
<link href="https://chemins.be/biez/sentier/39"/><trkseg>
<trkpt lat="50.732757" lon="4.714957"><time>2026-05-02T21:15:06Z</time></trkpt>
<trkpt lat="50.732363" lon="4.716752"><time>2026-05-02T21:25:06Z</time></trkpt>
</trkseg></trk>
<trk>
<name>bgdbz39</name>
<cmt>d</cmt>
<desc>Biez Sentier n°39 </desc>
<link href="https://chemins.be/biez/sentier/39"/><trkseg>
<trkpt lat="50.732363" lon="4.716752"><time>2026-05-02T21:25:06Z</time></trkpt>
<trkpt lat="50.731383" lon="4.719674"><time>2026-05-02T21:35:06Z</time></trkpt>
</trkseg></trk>
<trk>
<name>bgdbz39</name>
<cmt>q</cmt>
<desc>Biez Sentier n°39 </desc>
<link href="https://chemins.be/biez/sentier/39"/><trkseg>
<trkpt lat="50.731383" lon="4.719674"><time>2026-05-02T21:35:06Z</time></trkpt>
<trkpt lat="50.731086" lon="4.721500"><time>2026-05-02T21:45:06Z</time></trkpt>
<trkpt lat="50.730642" lon="4.722086"><time>2026-05-02T21:55:06Z</time></trkpt>
<trkpt lat="50.731068" lon="4.724361"><time>2026-05-02T22:05:06Z</time></trkpt>
</trkseg>
</trk>
<trk>
<name>bgdbz39bis</name>
<cmt>d</cmt>
<desc>Biez Sentier n°39bis </desc>
<link href="https://chemins.be/biez/sentier/39bis"/><trkseg>
<trkpt lat="50.730567" lon="4.720167"><time>2026-05-02T20:35:06Z</time></trkpt>
<trkpt lat="50.729695" lon="4.723236"><time>2026-05-02T20:45:06Z</time></trkpt>
<trkpt lat="50.728784" lon="4.724461"><time>2026-05-02T20:55:06Z</time></trkpt>
</trkseg>
</trk>
<trk>
<name>bgdbz40</name>
<cmt>v</cmt>
<desc>Biez Sentier n°40 </desc>
<link href="https://chemins.be/biez/sentier/40"/><trkseg>
<trkpt lat="50.727492" lon="4.737949"><time>2026-05-02T20:35:06Z</time></trkpt>
<trkpt lat="50.727500" lon="4.738474"><time>2026-05-02T20:45:06Z</time></trkpt>
<trkpt lat="50.727471" lon="4.738870"><time>2026-05-02T20:55:06Z</time></trkpt>
<trkpt lat="50.727381" lon="4.739181"><time>2026-05-02T21:05:06Z</time></trkpt>
</trkseg></trk>
<trk>
<name>bgdbz40</name>
<cmt>d</cmt>
<desc>Biez Sentier n°40 </desc>
<link href="https://chemins.be/biez/sentier/40"/><trkseg>
<trkpt lat="50.727381" lon="4.739181"><time>2026-05-02T21:05:06Z</time></trkpt>
<trkpt lat="50.727388" lon="4.739705"><time>2026-05-02T21:15:06Z</time></trkpt>
<trkpt lat="50.727413" lon="4.740187"><time>2026-05-02T21:25:06Z</time></trkpt>
<trkpt lat="50.727097" lon="4.740779"><time>2026-05-02T21:35:06Z</time></trkpt>
<trkpt lat="50.726536" lon="4.741752"><time>2026-05-02T21:45:06Z</time></trkpt>
<trkpt lat="50.725475" lon="4.744576"><time>2026-05-02T21:55:06Z</time></trkpt>
<trkpt lat="50.722997" lon="4.749315"><time>2026-05-02T22:05:06Z</time></trkpt>
<trkpt lat="50.724101" lon="4.747171"><time>2026-05-02T22:15:06Z</time></trkpt>
<trkpt lat="50.722816" lon="4.749653"><time>2026-05-02T22:25:06Z</time></trkpt>
</trkseg>
</trk>
<trk>
<name>bgdbz41</name>
<cmt>q</cmt>
<desc>Biez Sentier n°41 </desc>
<link href="https://chemins.be/biez/sentier/41"/><trkseg>
<trkpt lat="50.720352" lon="4.738559"><time>2026-05-02T20:35:06Z</time></trkpt>
<trkpt lat="50.722365" lon="4.738872"><time>2026-05-02T20:45:06Z</time></trkpt>
</trkseg></trk>
<trk>
<name>bgdbz41</name>
<cmt>v</cmt>
<desc>Biez Sentier n°41 </desc>
<link href="https://chemins.be/biez/sentier/41"/><trkseg>
<trkpt lat="50.722365" lon="4.738872"><time>2026-05-02T20:45:06Z</time></trkpt>
<trkpt lat="50.723485" lon="4.739986"><time>2026-05-02T20:55:06Z</time></trkpt>
<trkpt lat="50.727106" lon="4.740765"><time>2026-05-02T21:05:06Z</time></trkpt>
<trkpt lat="50.728757" lon="4.741812"><time>2026-05-02T21:15:06Z</time></trkpt>
</trkseg></trk>
<trk>
<name>bgdbz41</name>
<cmt>s</cmt>
<desc>Biez Sentier n°41 </desc>
<link href="https://chemins.be/biez/sentier/41"/><trkseg>
<trkpt lat="50.728757" lon="4.741812"><time>2026-05-02T21:15:06Z</time></trkpt>
<trkpt lat="50.729645" lon="4.742258"><time>2026-05-02T21:25:06Z</time></trkpt>
<trkpt lat="50.729968" lon="4.742374"><time>2026-05-02T21:35:06Z</time></trkpt>
<trkpt lat="50.730076" lon="4.742616"><time>2026-05-02T21:45:06Z</time></trkpt>
</trkseg>
</trk>
<trk>
<name>bgdbz42</name>
<cmt>d</cmt>
<desc>Biez Sentier n°42 </desc>
<link href="https://chemins.be/biez/sentier/42"/><trkseg>
<trkpt lat="50.723112" lon="4.727208"><time>2026-05-02T20:35:06Z</time></trkpt>
<trkpt lat="50.723950" lon="4.729325"><time>2026-05-02T20:45:06Z</time></trkpt>
<trkpt lat="50.724385" lon="4.731155"><time>2026-05-02T20:55:06Z</time></trkpt>
</trkseg></trk>
<trk>
<name>bgdbz42</name>
<cmt>v</cmt>
<desc>Biez Sentier n°42 </desc>
<link href="https://chemins.be/biez/sentier/42"/><trkseg>
<trkpt lat="50.724385" lon="4.731155"><time>2026-05-02T20:55:06Z</time></trkpt>
<trkpt lat="50.724312" lon="4.731410"><time>2026-05-02T21:05:06Z</time></trkpt>
<trkpt lat="50.726345" lon="4.734159"><time>2026-05-02T21:15:06Z</time></trkpt>
<trkpt lat="50.727068" lon="4.735524"><time>2026-05-02T21:25:06Z</time></trkpt>
<trkpt lat="50.728027" lon="4.736481"><time>2026-05-02T21:35:06Z</time></trkpt>
</trkseg></trk>
<trk>
<name>bgdbz42</name>
<cmt>d</cmt>
<desc>Biez Sentier n°42 </desc>
<link href="https://chemins.be/biez/sentier/42"/><trkseg>
<trkpt lat="50.728027" lon="4.736481"><time>2026-05-02T21:35:06Z</time></trkpt>
<trkpt lat="50.728240" lon="4.737417"><time>2026-05-02T21:45:06Z</time></trkpt>
<trkpt lat="50.728319" lon="4.737913"><time>2026-05-02T21:55:06Z</time></trkpt>
</trkseg>
</trk>
<trk>
<name>bgdbz43</name>
<cmt>q</cmt>
<desc>Biez Sentier n°43 </desc>
<link href="https://chemins.be/biez/sentier/43"/><trkseg>
<trkpt lat="50.721012" lon="4.724067"><time>2026-05-02T20:35:06Z</time></trkpt>
<trkpt lat="50.721664" lon="4.727222"><time>2026-05-02T20:45:06Z</time></trkpt>
</trkseg></trk>
<trk>
<name>bgdbz43</name>
<cmt>b</cmt>
<desc>Biez Sentier n°43 </desc>
<link href="https://chemins.be/biez/sentier/43"/><trkseg>
<trkpt lat="50.721664" lon="4.727222"><time>2026-05-02T20:45:06Z</time></trkpt>
<trkpt lat="50.721461" lon="4.728574"><time>2026-05-02T20:55:06Z</time></trkpt>
</trkseg></trk>
<trk>
<name>bgdbz43</name>
<cmt>q</cmt>
<desc>Biez Sentier n°43 </desc>
<link href="https://chemins.be/biez/sentier/43"/><trkseg>
<trkpt lat="50.721461" lon="4.728574"><time>2026-05-02T20:55:06Z</time></trkpt>
<trkpt lat="50.723011" lon="4.730791"><time>2026-05-02T21:05:06Z</time></trkpt>
</trkseg>
</trk>
<trk>
<name>bgdbz44</name>
<cmt>d</cmt>
<desc>Biez Sentier n°44 </desc>
<link href="https://chemins.be/biez/sentier/44"/><trkseg>
<trkpt lat="50.723810" lon="4.725682"><time>2026-05-02T20:35:06Z</time></trkpt>
<trkpt lat="50.723430" lon="4.725146"><time>2026-05-02T20:45:06Z</time></trkpt>
<trkpt lat="50.722649" lon="4.724523"><time>2026-05-02T20:55:06Z</time></trkpt>
<trkpt lat="50.722185" lon="4.724327"><time>2026-05-02T21:05:06Z</time></trkpt>
<trkpt lat="50.721861" lon="4.724191"><time>2026-05-02T21:15:06Z</time></trkpt>
<trkpt lat="50.721073" lon="4.724051"><time>2026-05-02T21:25:06Z</time></trkpt>
</trkseg>
</trk>
<trk>
<name>bgdbz45</name>
<cmt>v</cmt>
<desc>Biez Sentier n°45 </desc>
<link href="https://chemins.be/biez/sentier/45"/><trkseg>
<trkpt lat="50.719240" lon="4.735067"><time>2026-05-02T20:35:06Z</time></trkpt>
<trkpt lat="50.718748" lon="4.737185"><time>2026-05-02T20:45:06Z</time></trkpt>
<trkpt lat="50.718520" lon="4.739609"><time>2026-05-02T20:55:06Z</time></trkpt>
<trkpt lat="50.718344" lon="4.743360"><time>2026-05-02T21:05:06Z</time></trkpt>
</trkseg>
</trk>
<trk>
<name>bgdbz46</name>
<cmt>v</cmt>
<desc>Biez Sentier n°46 Sentier des Communes</desc>
<link href="https://chemins.be/biez/sentier/46"/><trkseg>
<trkpt lat="50.732929" lon="4.724195"><time>2026-05-02T20:35:06Z</time></trkpt>
<trkpt lat="50.732111" lon="4.725566"><time>2026-05-02T20:45:06Z</time></trkpt>
<trkpt lat="50.731653" lon="4.726008"><time>2026-05-02T20:55:06Z</time></trkpt>
<trkpt lat="50.731555" lon="4.726611"><time>2026-05-02T21:05:06Z</time></trkpt>
<trkpt lat="50.731473" lon="4.726918"><time>2026-05-02T21:15:06Z</time></trkpt>
</trkseg>
</trk>
<trk>
<name>bgdbz47</name>
<cmt>v</cmt>
<desc>Biez Sentier n°47 Sentier du Petit Champ</desc>
<link href="https://chemins.be/biez/sentier/47"/><trkseg>
<trkpt lat="50.734076" lon="4.719288"><time>2026-05-02T20:35:06Z</time></trkpt>
<trkpt lat="50.734633" lon="4.719675"><time>2026-05-02T20:45:06Z</time></trkpt>
<trkpt lat="50.737053" lon="4.721875"><time>2026-05-02T20:55:06Z</time></trkpt>
<trkpt lat="50.737367" lon="4.722160"><time>2026-05-02T21:05:06Z</time></trkpt>
<trkpt lat="50.738069" lon="4.721897"><time>2026-05-02T21:15:06Z</time></trkpt>
</trkseg>
</trk>
<trk>
<name>bgdbz48</name>
<cmt>b</cmt>
<desc>Biez Sentier n°48 </desc>
<link href="https://chemins.be/biez/sentier/48"/><trkseg>
<trkpt lat="50.742795" lon="4.719600"><time>2026-05-02T20:35:06Z</time></trkpt>
<trkpt lat="50.742331" lon="4.720429"><time>2026-05-02T20:45:06Z</time></trkpt>
<trkpt lat="50.741698" lon="4.721165"><time>2026-05-02T20:55:06Z</time></trkpt>
<trkpt lat="50.739781" lon="4.723723"><time>2026-05-02T21:05:06Z</time></trkpt>
<trkpt lat="50.739070" lon="4.723746"><time>2026-05-02T21:15:06Z</time></trkpt>
</trkseg>
</trk>
<trk>
<name>bgdbz49</name>
<cmt>v</cmt>
<desc>Biez Sentier n°49 </desc>
<link href="https://chemins.be/biez/sentier/49"/><trkseg>
<trkpt lat="50.735890" lon="4.717078"><time>2026-05-02T20:35:06Z</time></trkpt>
<trkpt lat="50.735819" lon="4.716865"><time>2026-05-02T20:45:06Z</time></trkpt>
<trkpt lat="50.735487" lon="4.716508"><time>2026-05-02T20:55:06Z</time></trkpt>
</trkseg>
</trk>
<trk>
<name>bgdbz5</name>
<cmt>r</cmt>
<desc>Biez Chemin n°5 Rue du Beau Site / Rue de Bettinval</desc>
<link href="https://chemins.be/biez/chemin/5"/><trkseg>
<trkpt lat="50.722935" lon="4.698826"><time>2026-05-02T20:35:06Z</time></trkpt>
<trkpt lat="50.724048" lon="4.699301"><time>2026-05-02T20:45:06Z</time></trkpt>
<trkpt lat="50.724809" lon="4.700454"><time>2026-05-02T20:55:06Z</time></trkpt>
<trkpt lat="50.725622" lon="4.702159"><time>2026-05-02T21:05:06Z</time></trkpt>
<trkpt lat="50.725962" lon="4.702643"><time>2026-05-02T21:15:06Z</time></trkpt>
<trkpt lat="50.726392" lon="4.703354"><time>2026-05-02T21:25:06Z</time></trkpt>
<trkpt lat="50.727127" lon="4.703997"><time>2026-05-02T21:35:06Z</time></trkpt>
<trkpt lat="50.727521" lon="4.704623"><time>2026-05-02T21:45:06Z</time></trkpt>
<trkpt lat="50.727717" lon="4.705247"><time>2026-05-02T21:55:06Z</time></trkpt>
<trkpt lat="50.727740" lon="4.706607"><time>2026-05-02T22:05:06Z</time></trkpt>
<trkpt lat="50.728907" lon="4.707239"><time>2026-05-02T22:15:06Z</time></trkpt>
<trkpt lat="50.729741" lon="4.708052"><time>2026-05-02T22:25:06Z</time></trkpt>
<trkpt lat="50.731101" lon="4.710116"><time>2026-05-02T22:35:06Z</time></trkpt>
<trkpt lat="50.733178" lon="4.716066"><time>2026-05-02T22:45:06Z</time></trkpt>
</trkseg>
</trk>
<trk>
<name>bgdbz50</name>
<cmt>v</cmt>
<desc>Biez Sentier n°50 Sentier du Moulin</desc>
<link href="https://chemins.be/biez/sentier/50"/><trkseg>
<trkpt lat="50.732597" lon="4.731413"><time>2026-05-02T20:35:06Z</time></trkpt>
<trkpt lat="50.732127" lon="4.730748"><time>2026-05-02T20:45:06Z</time></trkpt>
<trkpt lat="50.731964" lon="4.730714"><time>2026-05-02T20:55:06Z</time></trkpt>
</trkseg>
</trk>
<trk>
<name>bgdbz51</name>
<cmt>v</cmt>
<desc>Biez Chemin n°51 Sentier du Village</desc>
<link href="https://chemins.be/biez/chemin/51"/><trkseg>
<trkpt lat="50.725953" lon="4.702841"><time>2026-05-02T20:35:06Z</time></trkpt>
<trkpt lat="50.725520" lon="4.703320"><time>2026-05-02T20:45:06Z</time></trkpt>
<trkpt lat="50.725483" lon="4.703546"><time>2026-05-02T20:55:06Z</time></trkpt>
<trkpt lat="50.725662" lon="4.704043"><time>2026-05-02T21:05:06Z</time></trkpt>
</trkseg>
</trk>
<trk>
<name>bgdbz53</name>
<cmt>q</cmt>
<desc>Biez Sentier n°53 </desc>
<link href="https://chemins.be/biez/sentier/53"/><trkseg>
<trkpt lat="50.726376" lon="4.702462"><time>2026-05-02T20:35:06Z</time></trkpt>
<trkpt lat="50.726369" lon="4.701782"><time>2026-05-02T20:45:06Z</time></trkpt>
</trkseg>
</trk>
<trk>
<name>bgdbz6</name>
<cmt>r</cmt>
<desc>Biez Chemin n°6 Rue de Bettinval / Chavée de la Sarte</desc>
<link href="https://chemins.be/biez/chemin/6"/><trkseg>
<trkpt lat="50.736386" lon="4.716572"><time>2026-05-02T20:35:06Z</time></trkpt>
<trkpt lat="50.735610" lon="4.717557"><time>2026-05-02T20:45:06Z</time></trkpt>
<trkpt lat="50.735014" lon="4.718346"><time>2026-05-02T20:55:06Z</time></trkpt>
<trkpt lat="50.734482" lon="4.718909"><time>2026-05-02T21:05:06Z</time></trkpt>
<trkpt lat="50.733924" lon="4.719216"><time>2026-05-02T21:15:06Z</time></trkpt>
</trkseg></trk>
<trk>
<name>bgdbz6</name>
<cmt>v</cmt>
<desc>Biez Chemin n°6 Rue de Bettinval / Chavée de la Sarte</desc>
<link href="https://chemins.be/biez/chemin/6"/><trkseg>
<trkpt lat="50.733924" lon="4.719216"><time>2026-05-02T21:15:06Z</time></trkpt>
<trkpt lat="50.733456" lon="4.719312"><time>2026-05-02T21:25:06Z</time></trkpt>
<trkpt lat="50.732351" lon="4.719148"><time>2026-05-02T21:35:06Z</time></trkpt>
<trkpt lat="50.731694" lon="4.719497"><time>2026-05-02T21:45:06Z</time></trkpt>
<trkpt lat="50.730631" lon="4.720098"><time>2026-05-02T21:55:06Z</time></trkpt>
<trkpt lat="50.729016" lon="4.722055"><time>2026-05-02T22:05:06Z</time></trkpt>
<trkpt lat="50.728059" lon="4.723323"><time>2026-05-02T22:15:06Z</time></trkpt>
<trkpt lat="50.726097" lon="4.724073"><time>2026-05-02T22:25:06Z</time></trkpt>
<trkpt lat="50.725322" lon="4.724803"><time>2026-05-02T22:35:06Z</time></trkpt>
<trkpt lat="50.722997" lon="4.726386"><time>2026-05-02T22:45:06Z</time></trkpt>
<trkpt lat="50.721673" lon="4.727311"><time>2026-05-02T22:55:06Z</time></trkpt>
<trkpt lat="50.720366" lon="4.728306"><time>2026-05-02T23:05:06Z</time></trkpt>
<trkpt lat="50.719691" lon="4.728108"><time>2026-05-02T23:15:06Z</time></trkpt>
</trkseg>
</trk>
<trk>
<name>bgdbz7</name>
<cmt>r</cmt>
<desc>Biez Chemin n°7 Rue du Grand Sart</desc>
<link href="https://chemins.be/biez/chemin/7"/><trkseg>
<trkpt lat="50.729121" lon="4.737509"><time>2026-05-02T20:35:06Z</time></trkpt>
<trkpt lat="50.728320" lon="4.737885"><time>2026-05-02T20:45:06Z</time></trkpt>
<trkpt lat="50.727510" lon="4.737935"><time>2026-05-02T20:55:06Z</time></trkpt>
<trkpt lat="50.726244" lon="4.737600"><time>2026-05-02T21:05:06Z</time></trkpt>
<trkpt lat="50.725743" lon="4.736873"><time>2026-05-02T21:15:06Z</time></trkpt>
</trkseg></trk>
<trk>
<name>bgdbz7</name>
<cmt>v</cmt>
<desc>Biez Chemin n°7 Rue du Grand Sart</desc>
<link href="https://chemins.be/biez/chemin/7"/><trkseg>
<trkpt lat="50.725743" lon="4.736873"><time>2026-05-02T21:15:06Z</time></trkpt>
<trkpt lat="50.724550" lon="4.735915"><time>2026-05-02T21:25:06Z</time></trkpt>
<trkpt lat="50.723905" lon="4.735273"><time>2026-05-02T21:35:06Z</time></trkpt>
<trkpt lat="50.723287" lon="4.734319"><time>2026-05-02T21:45:06Z</time></trkpt>
<trkpt lat="50.722851" lon="4.732885"><time>2026-05-02T21:55:06Z</time></trkpt>
<trkpt lat="50.723141" lon="4.729517"><time>2026-05-02T22:05:06Z</time></trkpt>
<trkpt lat="50.723040" lon="4.727109"><time>2026-05-02T22:15:06Z</time></trkpt>
<trkpt lat="50.722953" lon="4.726315"><time>2026-05-02T22:25:06Z</time></trkpt>
<trkpt lat="50.722546" lon="4.724202"><time>2026-05-02T22:35:06Z</time></trkpt>
<trkpt lat="50.722474" lon="4.724044"><time>2026-05-02T22:45:06Z</time></trkpt>
<trkpt lat="50.722312" lon="4.723923"><time>2026-05-02T22:55:06Z</time></trkpt>
</trkseg>
</trk>
<trk>
<name>bgdbz9</name>
<cmt>r</cmt>
<desc>Biez Chemin n°9 Rue du Petit Sart</desc>
<link href="https://chemins.be/biez/chemin/9"/><trkseg>
<trkpt lat="50.729130" lon="4.737382"><time>2026-05-02T20:35:06Z</time></trkpt>
<trkpt lat="50.729224" lon="4.736263"><time>2026-05-02T20:45:06Z</time></trkpt>
<trkpt lat="50.729637" lon="4.733335"><time>2026-05-02T20:55:06Z</time></trkpt>
<trkpt lat="50.730425" lon="4.731485"><time>2026-05-02T21:05:06Z</time></trkpt>
<trkpt lat="50.730590" lon="4.730424"><time>2026-05-02T21:15:06Z</time></trkpt>
<trkpt lat="50.730889" lon="4.729690"><time>2026-05-02T21:25:06Z</time></trkpt>
<trkpt lat="50.730991" lon="4.728827"><time>2026-05-02T21:35:06Z</time></trkpt>
<trkpt lat="50.731127" lon="4.728403"><time>2026-05-02T21:45:06Z</time></trkpt>
<trkpt lat="50.731498" lon="4.727527"><time>2026-05-02T21:55:06Z</time></trkpt>
<trkpt lat="50.731500" lon="4.727111"><time>2026-05-02T22:05:06Z</time></trkpt>
<trkpt lat="50.731536" lon="4.727003"><time>2026-05-02T22:15:06Z</time></trkpt>
<trkpt lat="50.731292" lon="4.726530"><time>2026-05-02T22:25:06Z</time></trkpt>
<trkpt lat="50.730455" lon="4.724875"><time>2026-05-02T22:35:06Z</time></trkpt>
</trkseg></trk>
<trk>
<name>bgdbz9</name>
<cmt>v</cmt>
<desc>Biez Chemin n°9 Rue du Petit Sart</desc>
<link href="https://chemins.be/biez/chemin/9"/><trkseg>
<trkpt lat="50.730455" lon="4.724875"><time>2026-05-02T22:35:06Z</time></trkpt>
<trkpt lat="50.729644" lon="4.723326"><time>2026-05-02T22:45:06Z</time></trkpt>
<trkpt lat="50.729004" lon="4.722150"><time>2026-05-02T22:55:06Z</time></trkpt>
</trkseg>
</trk>
<trk>
<name>bgdbzi1</name>
<cmt>r</cmt>
<desc>Biez Sentier n°i1 Rue des Bruyères / Chemin de la Planterie</desc>
<link href="https://chemins.be/biez/sentier/i1"/><trkseg>
<trkpt lat="50.724350" lon="4.703736"><time>2026-05-02T20:35:06Z</time></trkpt>
<trkpt lat="50.723393" lon="4.705245"><time>2026-05-02T20:45:06Z</time></trkpt>
<trkpt lat="50.722975" lon="4.707191"><time>2026-05-02T20:55:06Z</time></trkpt>
</trkseg></trk>
<trk>
<name>bgdbzi1</name>
<cmt>v</cmt>
<desc>Biez Sentier n°i1 Rue des Bruyères / Chemin de la Planterie</desc>
<link href="https://chemins.be/biez/sentier/i1"/><trkseg>
<trkpt lat="50.722975" lon="4.707191"><time>2026-05-02T20:55:06Z</time></trkpt>
<trkpt lat="50.722836" lon="4.708286"><time>2026-05-02T21:05:06Z</time></trkpt>
<trkpt lat="50.722596" lon="4.708647"><time>2026-05-02T21:15:06Z</time></trkpt>
</trkseg>
</trk>
<trk>
<name>bgdbzi2</name>
<cmt>r</cmt>
<desc>Biez Chemin n°i2 Allée du Vicinal</desc>
<link href="https://chemins.be/biez/chemin/i2"/><trkseg>
<trkpt lat="50.722784" lon="4.707605"><time>2026-05-02T20:35:06Z</time></trkpt>
<trkpt lat="50.722547" lon="4.705621"><time>2026-05-02T20:45:06Z</time></trkpt>
<trkpt lat="50.722369" lon="4.704926"><time>2026-05-02T20:55:06Z</time></trkpt>
<trkpt lat="50.722213" lon="4.702956"><time>2026-05-02T21:05:06Z</time></trkpt>
<trkpt lat="50.722504" lon="4.701655"><time>2026-05-02T21:15:06Z</time></trkpt>
</trkseg></trk>
<trk>
<name>bgdbzi2</name>
<cmt>v</cmt>
<desc>Biez Chemin n°i2 Allée du Vicinal</desc>
<link href="https://chemins.be/biez/chemin/i2"/><trkseg>
<trkpt lat="50.722504" lon="4.701655"><time>2026-05-02T21:15:06Z</time></trkpt>
<trkpt lat="50.723101" lon="4.700343"><time>2026-05-02T21:25:06Z</time></trkpt>
<trkpt lat="50.723606" lon="4.699709"><time>2026-05-02T21:35:06Z</time></trkpt>
<trkpt lat="50.724092" lon="4.699726"><time>2026-05-02T21:45:06Z</time></trkpt>
<trkpt lat="50.724550" lon="4.699985"><time>2026-05-02T21:55:06Z</time></trkpt>
<trkpt lat="50.727674" lon="4.701593"><time>2026-05-02T22:05:06Z</time></trkpt>
<trkpt lat="50.729443" lon="4.701988"><time>2026-05-02T22:15:06Z</time></trkpt>
<trkpt lat="50.730027" lon="4.702360"><time>2026-05-02T22:25:06Z</time></trkpt>
<trkpt lat="50.731423" lon="4.704509"><time>2026-05-02T22:35:06Z</time></trkpt>
</trkseg>
</trk>
<trk>
<name>bgdbzi3</name>
<cmt>r</cmt>
<desc>Biez Chemin n°i3 Chemin de la Corniche</desc>
<link href="https://chemins.be/biez/chemin/i3"/><trkseg>
<trkpt lat="50.722529" lon="4.708652"><time>2026-05-02T20:35:06Z</time></trkpt>
<trkpt lat="50.721766" lon="4.708377"><time>2026-05-02T20:45:06Z</time></trkpt>
<trkpt lat="50.721120" lon="4.711021"><time>2026-05-02T20:55:06Z</time></trkpt>
</trkseg>
</trk>
<trk>
<name>bgdbzi4</name>
<cmt>v</cmt>
<desc>Biez Chemin n°i4 </desc>
<link href="https://chemins.be/biez/chemin/i4"/><trkseg>
<trkpt lat="50.728614" lon="4.724524"><time>2026-05-02T20:35:06Z</time></trkpt>
<trkpt lat="50.728001" lon="4.723373"><time>2026-05-02T20:45:06Z</time></trkpt>
</trkseg>
</trk>
<trk>
<name>bgdbzi5</name>
<cmt>v</cmt>
<desc>Biez Sentier n°i5 </desc>
<link href="https://chemins.be/biez/sentier/i5"/><trkseg>
<trkpt lat="50.723526" lon="4.749730"><time>2026-05-02T20:35:06Z</time></trkpt>
<trkpt lat="50.722387" lon="4.748843"><time>2026-05-02T20:45:06Z</time></trkpt>
<trkpt lat="50.722072" lon="4.748812"><time>2026-05-02T20:55:06Z</time></trkpt>
<trkpt lat="50.722027" lon="4.748925"><time>2026-05-02T21:05:06Z</time></trkpt>
</trkseg>
</trk>
<trk>
<name>bgdbzi6</name>
<cmt>v</cmt>
<desc>Biez Chemin n°i6 </desc>
<link href="https://chemins.be/biez/chemin/i6"/><trkseg>
<trkpt lat="50.732107" lon="4.725560"><time>2026-05-02T20:35:06Z</time></trkpt>
<trkpt lat="50.731327" lon="4.724209"><time>2026-05-02T20:45:06Z</time></trkpt>
</trkseg>
</trk>
</gpx>